Time;durP1;ratioP1;P1;durP2;ratioP2;P2;SDS_P1;SDS_P2;PMS_P1;PMS_P2;Temp;Humidity;BMP_temperature;BMP_pressure;BME280_temperature;BME280_humidity;BME280_pressure;Samples;Min_cycle;Max_cycle;Signal;HPM_P1;HPM_P2
2023/05/20 00:01:29;;;;;;;10.00;8.02;;;;;;;16.49;100.00;101622.88;5093271;28;20032;-79
2023/05/20 00:03:55;;;;;;;8.75;7.80;;;;;;;16.53;100.00;101623.63;5092241;28;20044;-82
2023/05/20 00:06:21;;;;;;;8.45;7.57;;;;;;;16.53;100.00;101647.59;5074739;28;20032;-80
2023/05/20 00:08:46;;;;;;;12.35;7.72;;;;;;;16.42;100.00;101644.41;5092894;28;20513;-82
2023/05/20 00:11:11;;;;;;;10.70;8.05;;;;;;;16.10;100.00;101608.44;5092475;28;20109;-79
2023/05/20 00:13:37;;;;;;;13.43;8.15;;;;;;;16.21;100.00;101609.00;5093044;28;20401;-79
2023/05/20 00:16:03;;;;;;;9.95;8.02;;;;;;;16.22;100.00;101621.78;5093047;28;20081;-79
2023/05/20 00:18:29;;;;;;;12.82;8.27;;;;;;;16.03;100.00;101643.66;5092160;28;20031;-78
2023/05/20 00:20:54;;;;;;;10.77;7.85;;;;;;;16.35;100.00;101666.00;5075357;28;20032;-79
2023/05/20 00:23:20;;;;;;;9.73;8.13;;;;;;;16.07;100.00;101642.72;5092912;28;20035;-80
2023/05/20 00:25:45;;;;;;;12.25;9.27;;;;;;;15.96;100.00;101625.88;5075200;28;20039;-79
2023/05/20 00:28:11;;;;;;;10.80;9.13;;;;;;;16.15;100.00;101658.78;5091923;28;20031;-79
2023/05/20 00:30:40;;;;;;;11.55;8.98;;;;;;;16.15;100.00;101692.13;5093372;28;20028;-79
2023/05/20 00:33:06;;;;;;;10.75;8.80;;;;;;;16.02;100.00;101703.56;5074982;28;20562;-78
2023/05/20 00:35:31;;;;;;;11.20;8.45;;;;;;;16.04;100.00;101649.66;5093213;28;20024;-79
2023/05/20 00:37:56;;;;;;;12.30;7.82;;;;;;;16.27;100.00;101648.22;5074939;28;20044;-80
2023/05/20 00:40:23;;;;;;;10.90;7.90;;;;;;;16.24;100.00;101642.31;5092258;28;20039;-79
2023/05/20 00:42:49;;;;;;;10.70;7.80;;;;;;;16.53;100.00;101693.81;5092942;28;20375;-80
2023/05/20 00:45:14;;;;;;;12.93;8.45;;;;;;;16.45;100.00;101673.44;5092167;28;20181;-79
2023/05/20 00:47:41;;;;;;;11.25;7.88;;;;;;;16.09;100.00;101640.09;5093161;28;20467;-79
2023/05/20 00:50:09;;;;;;;9.35;7.82;;;;;;;16.09;100.00;101634.97;5092653;28;20661;-78
2023/05/20 00:52:35;;;;;;;10.02;7.65;;;;;;;16.22;100.00;101615.84;5092428;28;20115;-79
2023/05/20 00:55:01;;;;;;;9.75;7.70;;;;;;;16.53;100.00;101675.00;5092952;28;20059;-78
2023/05/20 00:57:27;;;;;;;10.18;8.00;;;;;;;16.60;100.00;101704.78;5093392;28;20028;-80
2023/05/20 00:59:54;;;;;;;9.15;7.82;;;;;;;16.29;100.00;101636.19;5092281;28;20032;-79
2023/05/20 01:02:20;;;;;;;9.07;7.95;;;;;;;16.58;100.00;101678.31;5091647;28;20118;-80
2023/05/20 01:04:46;;;;;;;9.23;8.27;;;;;;;16.13;100.00;101606.63;5091871;28;20060;-82
2023/05/20 01:07:16;;;;;;;9.20;8.05;;;;;;;16.52;100.00;101668.19;5074357;28;20513;-81
2023/05/20 01:09:42;;;;;;;11.55;8.07;;;;;;;16.60;100.00;101669.66;5093202;28;20032;-78
2023/05/20 01:12:28;;;;;;;10.95;7.72;;;;;;;16.38;100.00;101624.84;5092121;28;20043;-82
2023/05/20 01:15:03;;;;;;;11.50;8.02;;;;;;;16.21;100.00;101630.41;5074478;28;20054;-84
2023/05/20 01:17:31;;;;;;;10.10;8.48;;;;;;;16.33;100.00;101666.03;5092118;28;20090;-85
2023/05/20 01:19:58;;;;;;;10.48;8.85;;;;;;;16.17;100.00;101639.03;5092934;28;20062;-82
2023/05/20 01:22:28;;;;;;;9.85;8.63;;;;;;;16.26;100.00;101691.88;5092838;28;20032;-84
2023/05/20 01:24:53;;;;;;;17.08;8.75;;;;;;;16.35;100.00;101678.81;5092623;28;20028;-83
2023/05/20 01:27:21;;;;;;;10.65;8.68;;;;;;;16.08;100.00;101634.16;5091387;28;20058;-82
2023/05/20 01:29:50;;;;;;;9.55;8.43;;;;;;;16.13;100.00;101634.00;5092232;28;20521;-81
2023/05/20 01:32:21;;;;;;;10.38;8.13;;;;;;;16.38;100.00;101668.50;5091959;28;20032;-82
2023/05/20 01:34:49;;;;;;;9.77;7.95;;;;;;;16.28;100.00;101633.66;5092870;28;20490;-81
2023/05/20 01:37:17;;;;;;;11.05;8.40;;;;;;;16.15;100.00;101622.00;5092016;28;20020;-82
2023/05/20 01:39:49;;;;;;;10.30;8.35;;;;;;;15.91;100.00;101622.56;5093903;28;20035;-80
2023/05/20 01:42:16;;;;;;;10.73;8.80;;;;;;;15.73;100.00;101608.44;5096244;28;20036;-81
2023/05/20 01:44:42;;;;;;;12.90;8.88;;;;;;;16.28;100.00;101690.13;5096430;28;20078;-82
2023/05/20 01:47:07;;;;;;;11.90;9.50;;;;;;;15.20;100.00;101588.25;5096313;28;20032;-81
2023/05/20 01:49:33;;;;;;;12.02;10.00;;;;;;;15.21;100.00;101623.25;5078130;28;20054;-81
2023/05/20 01:51:58;;;;;;;12.38;9.50;;;;;;;15.51;100.00;101700.38;5095650;28;20035;-79
2023/05/20 01:54:24;;;;;;;13.18;9.90;;;;;;;14.82;100.00;101612.06;5094961;28;20032;-80
2023/05/20 01:56:50;;;;;;;12.65;10.60;;;;;;;14.92;100.00;101669.94;5095818;28;20028;-80
2023/05/20 01:59:15;;;;;;;16.77;10.98;;;;;;;15.09;100.00;101670.47;5077568;28;20093;-80
2023/05/20 02:01:41;;;;;;;19.27;12.23;;;;;;;15.49;100.00;101744.88;5095154;28;20060;-80
2023/05/20 02:04:06;;;;;;;14.93;10.70;;;;;;;15.34;100.00;101771.63;5095392;28;20048;-78
2023/05/20 02:06:32;;;;;;;16.00;10.25;;;;;;;14.92;100.00;101744.19;5077347;28;20026;-84
2023/05/20 02:08:57;;;;;;;11.13;9.90;;;;;;;15.29;100.00;101791.34;5095392;28;20474;-81
2023/05/20 02:11:23;;;;;;;12.35;9.88;;;;;;;15.63;100.00;101812.97;5095268;28;20028;-81
2023/05/20 02:13:49;;;;;;;13.15;8.82;;;;;;;15.41;100.00;101754.41;5095477;28;20024;-81
2023/05/20 02:16:15;;;;;;;10.20;9.00;;;;;;;15.69;100.00;101793.22;5094965;28;20478;-80
2023/05/20 02:18:41;;;;;;;10.60;8.57;;;;;;;15.51;100.00;101764.47;5077023;28;20035;-78
2023/05/20 02:21:06;;;;;;;11.52;8.20;;;;;;;15.93;100.00;101836.31;5095489;28;20028;-79
2023/05/20 02:23:32;;;;;;;11.43;8.57;;;;;;;15.87;100.00;101803.94;5076782;28;20035;-81
2023/05/20 02:25:58;;;;;;;14.02;8.60;;;;;;;15.73;100.00;101812.81;5094663;28;20028;-77
2023/05/20 02:28:23;;;;;;;13.25;8.07;;;;;;;15.74;100.00;101835.00;5095447;28;20046;-79
2023/05/20 02:30:51;;;;;;;12.40;8.90;;;;;;;15.89;100.00;101839.81;5095195;28;20050;-81
2023/05/20 02:33:18;;;;;;;10.15;8.18;;;;;;;15.60;100.00;101794.25;5094697;28;20126;-80
2023/05/20 02:35:43;;;;;;;9.27;7.97;;;;;;;15.77;100.00;101809.31;5077351;28;20118;-79
2023/05/20 02:38:10;;;;;;;12.15;8.32;;;;;;;15.84;100.00;101813.41;5094300;28;20562;-81
2023/05/20 02:40:35;;;;;;;8.85;7.88;;;;;;;15.79;100.00;101826.34;5095000;28;20024;-77
2023/05/20 02:43:01;;;;;;;10.63;8.85;;;;;;;15.77;100.00;101809.31;5094197;28;20036;-78
2023/05/20 02:45:27;;;;;;;9.55;8.05;;;;;;;15.86;100.00;101819.38;5094036;28;20035;-78
2023/05/20 02:47:52;;;;;;;10.57;8.05;;;;;;;16.29;100.00;101877.50;5076229;28;20051;-79
2023/05/20 02:50:18;;;;;;;12.32;7.90;;;;;;;16.05;100.00;101828.38;5093731;28;20063;-78
2023/05/20 02:52:44;;;;;;;13.82;8.40;;;;;;;16.37;100.00;101843.94;5092665;28;20039;-78
2023/05/20 02:55:10;;;;;;;9.50;8.50;;;;;;;16.41;100.00;101864.41;5094068;28;20111;-78
2023/05/20 02:57:37;;;;;;;9.35;8.40;;;;;;;16.47;100.00;101871.13;5075291;28;20144;-76
2023/05/20 03:00:07;;;;;;;10.15;8.23;;;;;;;16.05;100.00;101806.13;5094637;28;20517;-78
2023/05/20 03:02:33;;;;;;;11.05;8.60;;;;;;;16.26;100.00;101809.97;5093729;28;20059;-76
2023/05/20 03:04:59;;;;;;;9.20;7.93;;;;;;;16.55;100.00;101853.00;5093307;28;20534;-80
2023/05/20 03:07:25;;;;;;;11.18;8.27;;;;;;;16.55;100.00;101835.88;5093563;28;20035;-76
2023/05/20 03:09:51;;;;;;;11.00;8.40;;;;;;;16.29;100.00;101799.63;5093597;28;20031;-78
2023/05/20 03:12:16;;;;;;;11.05;8.30;;;;;;;16.57;100.00;101839.25;5093886;28;20037;-78
2023/05/20 03:14:42;;;;;;;12.20;8.68;;;;;;;16.28;100.00;101783.38;5094049;28;20028;-80
2023/05/20 03:17:08;;;;;;;9.63;8.43;;;;;;;16.26;100.00;101780.00;5076277;28;20456;-78
2023/05/20 03:19:33;;;;;;;10.43;8.02;;;;;;;16.34;100.00;101793.50;5075741;28;20024;-80
2023/05/20 03:21:59;;;;;;;12.88;8.88;;;;;;;16.26;100.00;101790.25;5093016;28;20118;-80
2023/05/20 03:24:25;;;;;;;11.38;8.38;;;;;;;16.63;100.00;101877.63;5075643;28;20028;-83
2023/05/20 03:26:51;;;;;;;10.25;8.68;;;;;;;16.42;100.00;101832.69;5092911;28;20099;-77
2023/05/20 03:29:17;;;;;;;11.55;8.70;;;;;;;16.65;100.00;101855.34;5094066;28;20509;-79
2023/05/20 03:31:44;;;;;;;12.38;8.57;;;;;;;16.55;100.00;101855.56;5093881;28;20065;-78
2023/05/20 03:34:09;;;;;;;10.68;9.38;;;;;;;16.65;100.00;101852.75;5093548;28;20036;-86
2023/05/20 03:36:34;;;;;;;9.38;8.38;;;;;;;16.56;100.00;101854.69;5093737;28;20027;-84
2023/05/20 03:39:03;;;;;;;11.20;9.23;;;;;;;16.53;100.00;101831.63;5093261;28;20521;-79
2023/05/20 03:41:29;;;;;;;15.43;9.05;;;;;;;16.47;100.00;101837.72;5074923;28;20032;-76
2023/05/20 03:43:54;;;;;;;11.00;9.68;;;;;;;16.29;100.00;101812.44;5093062;28;20501;-76
2023/05/20 03:46:20;;;;;;;9.88;8.88;;;;;;;16.78;100.00;101867.00;5092541;28;20085;-74
2023/05/20 03:48:45;;;;;;;10.52;9.43;;;;;;;16.36;100.00;101837.13;5092970;28;20036;-76
2023/05/20 03:51:10;;;;;;;12.52;9.20;;;;;;;16.36;100.00;101826.88;5074204;28;20028;-76
2023/05/20 03:53:36;;;;;;;12.20;9.07;;;;;;;16.26;100.00;101799.69;5092650;28;20039;-77
2023/05/20 03:56:01;;;;;;;12.15;10.05;;;;;;;16.68;100.00;101854.44;5092565;28;20032;-76
2023/05/20 03:58:28;;;;;;;14.27;10.30;;;;;;;16.31;100.00;101831.25;5093466;28;20086;-76
2023/05/20 04:00:54;;;;;;;15.10;11.60;;;;;;;16.68;100.00;101860.38;5061833;28;20107;-78
2023/05/20 04:03:19;;;;;;;15.23;13.35;;;;;;;16.75;100.00;101861.09;5071595;28;20123;-77
2023/05/20 04:05:45;;;;;;;19.73;15.80;;;;;;;16.57;100.00;101846.97;5054146;28;20039;-76
2023/05/20 04:08:12;;;;;;;21.73;17.73;;;;;;;16.43;100.00;101813.00;5071740;28;20422;-79
2023/05/20 04:10:41;;;;;;;17.25;13.85;;;;;;;16.80;100.00;101872.09;5054238;28;20146;-74
2023/05/20 04:13:06;;;;;;;18.55;12.13;;;;;;;16.57;100.00;101851.25;5072068;28;20035;-76
2023/05/20 04:15:34;;;;;;;11.40;10.25;;;;;;;16.87;100.00;101878.81;5071606;28;20024;-75
2023/05/20 04:18:00;;;;;;;15.48;10.15;;;;;;;16.67;100.00;101843.31;5072087;28;20025;-72
2023/05/20 04:20:25;;;;;;;11.02;9.82;;;;;;;16.68;100.00;101839.84;5071027;28;20043;-77
2023/05/20 04:22:52;;;;;;;12.30;9.10;;;;;;;16.69;100.00;101804.72;5071449;28;20028;-78
2023/05/20 04:25:18;;;;;;;12.13;9.77;;;;;;;17.08;100.00;101876.56;5071821;28;20534;-78
2023/05/20 04:27:46;;;;;;;12.88;8.75;;;;;;;16.72;100.00;101779.81;5054312;28;20033;-82
2023/05/20 04:30:12;;;;;;;9.77;8.77;;;;;;;16.97;100.00;101816.03;5071922;28;20498;-81
2023/05/20 04:32:38;;;;;;;12.20;8.90;;;;;;;17.05;100.00;101814.13;5071379;28;20066;-76
2023/05/20 04:35:08;;;;;;;11.23;9.45;;;;;;;17.32;100.00;101850.25;5054177;28;20032;-78
2023/05/20 04:37:33;;;;;;;13.32;9.13;;;;;;;16.98;100.00;101782.56;5071797;28;20032;-76
2023/05/20 04:40:02;;;;;;;13.68;8.93;;;;;;;17.37;100.00;101811.56;5070766;28;20032;-81
2023/05/20 04:42:28;;;;;;;12.98;8.88;;;;;;;17.43;100.00;101844.00;5070981;28;20032;-82
2023/05/20 04:44:54;;;;;;;13.23;9.30;;;;;;;17.56;100.00;101835.09;5071640;28;20032;-74
2023/05/20 04:47:19;;;;;;;12.68;9.57;;;;;;;17.88;100.00;101838.47;5070766;28;20028;-77
2023/05/20 04:49:44;;;;;;;9.95;8.68;;;;;;;17.82;100.00;101843.81;5071098;28;20411;-82
2023/05/20 04:52:10;;;;;;;14.50;10.15;;;;;;;17.41;100.00;101802.84;5053852;28;20521;-82
2023/05/20 04:54:35;;;;;;;12.88;8.82;;;;;;;17.68;100.00;101835.59;5070949;28;20072;-85
2023/05/20 04:57:01;;;;;;;15.93;9.73;;;;;;;17.95;100.00;101831.41;5071627;28;20063;-85
2023/05/20 04:59:27;;;;;;;12.73;9.57;;;;;;;17.97;100.00;101853.66;5053463;28;20411;-82
2023/05/20 05:01:52;;;;;;;11.15;9.32;;;;;;;18.02;100.00;101838.94;5071742;28;20041;-82
2023/05/20 05:04:18;;;;;;;11.52;8.73;;;;;;;18.12;100.00;101844.66;5071573;28;20044;-85
2023/05/20 05:06:43;;;;;;;9.52;7.78;;;;;;;18.09;100.00;101850.72;5053479;28;20043;-87
2023/05/20 05:09:09;;;;;;;11.95;8.40;;;;;;;17.96;100.00;101836.53;5054397;28;20025;-83
2023/05/20 05:11:34;;;;;;;9.73;8.38;;;;;;;18.15;100.00;101824.81;5054132;28;20056;-76
2023/05/20 05:14:00;;;;;;;10.68;8.20;;;;;;;18.42;100.00;101836.00;5054812;28;20123;-81
2023/05/20 05:16:25;;;;;;;11.93;8.85;;;;;;;18.19;100.00;101766.31;5057346;28;20024;-83
2023/05/20 05:18:50;;;;;;;13.15;8.60;;;;;;;18.59;100.00;101849.25;5075611;28;20032;-81
2023/05/20 05:21:16;;;;;;;11.75;9.10;;;;;;;18.78;100.00;101837.47;5075511;28;20036;-84
2023/05/20 05:23:42;;;;;;;10.00;7.88;;;;;;;19.17;100.00;101845.66;5075917;28;20033;-82
2023/05/20 05:26:07;;;;;;;10.40;7.85;;;;;;;18.83;100.00;101778.91;5075850;28;20119;-85
2023/05/20 05:28:33;;;;;;;8.88;7.93;;;;;;;18.92;100.00;101804.34;5057810;28;20044;-85
2023/05/20 05:30:58;;;;;;;9.00;7.68;;;;;;;18.49;100.00;101762.84;5057572;28;20028;-82
2023/05/20 05:33:24;;;;;;;10.40;8.02;;;;;;;18.78;100.00;101798.81;5075308;28;20029;-83
2023/05/20 05:35:50;;;;;;;11.07;7.85;;;;;;;18.51;100.00;101743.03;5075079;28;20105;-86
2023/05/20 05:38:15;;;;;;;12.50;7.90;;;;;;;18.63;100.00;101783.00;5057363;28;20089;-81
2023/05/20 05:40:41;;;;;;;12.35;8.38;;;;;;;17.83;100.00;101651.59;5074913;28;20055;-85
2023/05/20 05:43:07;;;;;;;10.43;8.30;;;;;;;18.44;100.00;101743.28;5075662;28;20128;-80
2023/05/20 05:45:33;;;;;;;10.05;8.30;;;;;;;18.55;100.00;101747.19;5075421;28;20347;-86
2023/05/20 05:47:58;;;;;;;8.93;7.90;;;;;;;18.36;100.00;101756.34;5057382;28;20025;-83
2023/05/20 05:50:23;;;;;;;11.13;8.43;;;;;;;18.10;100.00;101708.22;5074621;28;20039;-82
2023/05/20 05:52:49;;;;;;;10.27;8.63;;;;;;;18.22;100.00;101698.44;5057606;28;20036;-85
2023/05/20 05:55:15;;;;;;;10.52;8.75;;;;;;;18.51;100.00;101731.88;5056697;28;20427;-85
2023/05/20 05:57:40;;;;;;;10.18;8.80;;;;;;;18.27;100.00;101686.25;5074806;28;20070;-84
2023/05/20 06:00:06;;;;;;;11.40;9.35;;;;;;;18.63;100.00;101728.88;5074927;28;20040;-83
2023/05/20 06:02:35;;;;;;;11.38;9.10;;;;;;;18.32;100.00;101703.25;5056309;28;20036;-83
2023/05/20 06:05:04;;;;;;;10.07;9.00;;;;;;;18.35;100.00;101698.00;5074460;28;20675;-86
2023/05/20 06:07:29;;;;;;;11.30;8.75;;;;;;;18.28;100.00;101706.81;5057178;28;20044;-85
2023/05/20 06:09:55;;;;;;;11.32;9.05;;;;;;;18.58;100.00;101759.94;5074597;28;20032;-86
2023/05/20 06:12:21;;;;;;;12.52;8.82;;;;;;;18.46;100.00;101706.25;5073985;28;20418;-84
2023/05/20 06:14:46;;;;;;;11.13;8.80;;;;;;;18.51;100.00;101706.09;5056847;28;20564;-83
2023/05/20 06:17:12;;;;;;;12.18;8.73;;;;;;;18.52;100.00;101698.31;5074680;28;20025;-85
2023/05/20 06:19:37;;;;;;;10.65;8.80;;;;;;;18.92;100.00;101736.47;5056547;28;20068;-80
2023/05/20 06:22:03;;;;;;;10.85;8.23;;;;;;;18.54;100.00;101696.53;5073369;28;20044;-80
2023/05/20 06:24:28;;;;;;;9.02;8.13;;;;;;;18.86;100.00;101736.69;5056767;28;20547;-85
2023/05/20 06:26:54;;;;;;;9.88;8.40;;;;;;;18.75;100.00;101725.91;5072912;28;20044;-81
2023/05/20 06:29:22;;;;;;;11.52;8.60;;;;;;;18.87;100.00;101722.91;5074427;28;20029;-82
2023/05/20 06:31:48;;;;;;;10.43;8.32;;;;;;;18.52;100.00;101667.41;5056816;28;20044;-86
2023/05/20 06:34:14;;;;;;;12.57;9.50;;;;;;;18.59;100.00;101671.47;5056220;28;20399;-83
2023/05/20 06:36:39;;;;;;;11.07;8.73;;;;;;;18.70;100.00;101684.81;5073963;28;20027;-84
2023/05/20 06:39:10;;;;;;;11.55;8.75;;;;;;;18.58;100.00;101681.84;5074180;28;20028;-84
2023/05/20 06:41:36;;;;;;;11.95;8.80;;;;;;;18.48;100.00;101678.69;5073724;28;20120;-85
2023/05/20 06:44:02;;;;;;;11.40;9.25;;;;;;;18.28;100.00;101645.03;5073648;28;20056;-82
2023/05/20 06:46:27;;;;;;;14.15;10.00;;;;;;;18.66;100.00;101723.66;5056583;28;20028;-83
2023/05/20 06:48:52;;;;;;;11.48;9.00;;;;;;;17.90;100.00;101620.50;5073543;28;20040;-86
2023/05/20 06:51:18;;;;;;;12.20;9.63;;;;;;;18.27;100.00;101687.09;5055250;28;20452;-81
2023/05/20 06:53:43;;;;;;;13.38;9.68;;;;;;;18.44;100.00;101712.34;5073911;28;20036;-80
2023/05/20 06:56:09;;;;;;;14.52;9.95;;;;;;;18.65;100.00;101768.34;5073710;28;20036;-84
2023/05/20 06:58:34;;;;;;;10.82;9.82;;;;;;;18.54;100.00;101757.53;5073509;28;20038;-81
2023/05/20 07:01:00;;;;;;;13.80;9.60;;;;;;;18.73;100.00;101781.81;5073253;28;20040;-83
2023/05/20 07:03:25;;;;;;;11.70;9.57;;;;;;;18.59;100.00;101771.97;5072980;28;20048;-82
2023/05/20 07:05:50;;;;;;;12.95;9.75;;;;;;;18.03;100.00;101729.06;5073755;28;20033;-84
2023/05/20 07:08:16;;;;;;;14.70;10.13;;;;;;;18.65;100.00;101791.53;5056255;28;20039;-86
2023/05/20 07:10:42;;;;;;;13.13;9.30;;;;;;;18.26;100.00;101744.66;5058622;28;20044;-83
2023/05/20 07:13:07;;;;;;;13.30;9.98;;;;;;;18.68;100.00;101796.56;5035497;28;20052;-83
2023/05/20 07:15:32;;;;;;;11.90;9.18;;;;;;;18.16;100.00;101743.25;5035212;28;20033;-83
2023/05/20 07:17:58;;;;;;;14.05;9.10;;;;;;;18.50;100.00;101785.13;5053468;28;20460;-83
2023/05/20 07:20:23;;;;;;;13.50;9.88;;;;;;;18.62;100.00;101807.09;5035461;28;20071;-80
2023/05/20 07:22:49;;;;;;;11.70;10.02;;;;;;;18.55;100.00;101795.28;5052663;28;20064;-85
2023/05/20 07:25:15;;;;;;;11.90;10.15;;;;;;;18.18;100.00;101729.44;5035862;28;20040;-80
2023/05/20 07:27:40;;;;;;;12.00;9.70;;;;;;;18.34;100.00;101718.66;5052947;28;20033;-84
2023/05/20 07:30:07;;;;;;;11.52;9.32;;;;;;;18.89;100.00;101773.53;5052922;28;20029;-84
2023/05/20 07:32:32;;;;;;;9.80;7.85;;;;;;;18.78;100.00;101712.91;5052738;28;20036;-84
2023/05/20 07:34:58;;;;;;;10.48;7.95;;;;;;;19.55;100.00;101748.91;5035391;28;20025;-84
2023/05/20 07:37:24;;;;;;;8.02;7.10;;;;;;;19.33;100.00;101668.81;5052645;28;20045;-83
2023/05/20 07:39:50;;;;;;;9.85;7.40;;;;;;;19.41;100.00;101616.97;5053001;28;20136;-82
2023/05/20 07:42:15;;;;;;;10.23;7.35;;;;;;;19.62;100.00;101583.44;5054287;28;20145;-79
2023/05/20 07:44:40;;;;;;;9.43;7.10;;;;;;;19.49;100.00;101542.69;5053690;28;20421;-84
2023/05/20 07:47:06;;;;;;;9.75;7.65;;;;;;;19.38;100.00;101527.63;5072363;28;20028;-83
2023/05/20 07:49:31;;;;;;;8.77;7.50;;;;;;;19.08;100.00;101464.31;5071786;28;20078;-83
2023/05/20 07:51:57;;;;;;;9.43;7.88;;;;;;;19.44;100.00;101529.97;5072118;28;20032;-79
2023/05/20 07:54:22;;;;;;;10.15;7.57;;;;;;;19.35;100.00;101514.00;5072592;28;20077;-83
2023/05/20 07:56:48;;;;;;;9.23;7.40;;;;;;;19.35;100.00;101516.59;5054534;28;20036;-85
2023/05/20 07:59:13;;;;;;;13.85;7.25;;;;;;;19.23;100.00;101504.13;5072810;28;20033;-83
2023/05/20 08:01:41;;;;;;;9.10;6.82;;;;;;;18.86;100.00;101454.00;5072088;28;20043;-85
2023/05/20 08:04:06;;;;;;;9.40;7.13;;;;;;;19.38;100.00;101490.66;5072438;28;20052;-85
2023/05/20 08:06:32;;;;;;;10.65;7.30;;;;;;;19.17;100.00;101488.91;5072781;28;20035;-85
2023/05/20 08:08:57;;;;;;;11.50;6.95;;;;;;;18.80;100.00;101438.75;5054446;28;20458;-84
2023/05/20 08:11:23;;;;;;;10.57;7.22;;;;;;;19.14;100.00;101492.44;5072454;28;20185;-86
2023/05/20 08:13:48;;;;;;;9.45;7.60;;;;;;;19.16;100.00;101493.22;5071845;28;20054;-82
2023/05/20 08:16:14;;;;;;;13.77;8.10;;;;;;;18.81;100.00;101449.91;5054128;28;20024;-85
2023/05/20 08:18:40;;;;;;;9.95;7.63;;;;;;;18.72;100.00;101450.25;5054145;28;20024;-84
2023/05/20 08:21:09;;;;;;;10.15;7.78;;;;;;;19.04;100.00;101499.69;5071663;28;20024;-84
2023/05/20 08:23:35;;;;;;;10.43;8.65;;;;;;;18.87;100.00;101496.94;5072172;28;20091;-85
2023/05/20 08:26:02;;;;;;;9.80;7.60;;;;;;;18.89;100.00;101520.91;5072066;28;20033;-86
2023/05/20 08:28:28;;;;;;;8.75;7.85;;;;;;;18.72;100.00;101519.81;5054367;28;20480;-87
2023/05/20 08:30:53;;;;;;;10.80;7.80;;;;;;;18.75;100.00;101530.03;5071730;28;20104;-83
2023/05/20 08:33:20;;;;;;;11.20;7.65;;;;;;;18.62;100.00;101546.84;5072214;28;20119;-79
2023/05/20 08:35:46;;;;;;;10.35;8.00;;;;;;;18.39;100.00;101521.00;5072513;28;20119;-81
2023/05/20 08:38:12;;;;;;;12.48;8.13;;;;;;;18.59;100.00;101557.25;5072094;28;20032;-86
2023/05/20 08:40:37;;;;;;;10.45;8.00;;;;;;;18.20;100.00;101497.66;5072170;28;20058;-85
2023/05/20 08:43:03;;;;;;;10.23;8.20;;;;;;;18.22;100.00;101529.34;5071988;28;20051;-87
2023/05/20 08:45:32;;;;;;;11.32;8.18;;;;;;;18.51;100.00;101603.91;5054532;28;20443;-87
2023/05/20 08:47:59;;;;;;;14.82;9.32;;;;;;;18.35;100.00;101568.38;5054601;28;20036;-87
2023/05/20 08:50:24;;;;;;;12.48;10.00;;;;;;;18.66;100.00;101616.25;5075797;28;20032;-86
2023/05/20 08:52:50;;;;;;;17.77;9.88;;;;;;;18.51;100.00;101629.66;5058658;28;20032;-85
2023/05/20 08:55:40;;;;;;;13.05;9.48;;;;;;;18.59;100.00;101637.97;5076275;28;20116;-86
2023/05/20 08:58:06;;;;;;;12.35;9.38;;;;;;;18.69;100.00;101652.22;5076547;28;20032;-86
2023/05/20 09:00:31;;;;;;;12.93;9.13;;;;;;;18.60;100.00;101656.84;5057946;28;20410;-86
2023/05/20 09:02:59;;;;;;;15.48;9.27;;;;;;;18.40;100.00;101660.03;5076815;28;20522;-86
2023/05/20 09:05:25;;;;;;;13.98;9.57;;;;;;;18.20;100.00;101671.00;5057927;28;20052;-86
2023/05/20 09:07:50;;;;;;;14.70;9.10;;;;;;;18.46;100.00;101695.94;5058490;28;20043;-85
2023/05/20 09:10:16;;;;;;;14.90;9.10;;;;;;;18.56;100.00;101735.97;5076076;28;20036;-84
2023/05/20 09:12:41;;;;;;;14.55;9.32;;;;;;;18.69;100.00;101754.47;5075864;28;20143;-84
2023/05/20 09:15:07;;;;;;;13.25;9.18;;;;;;;18.70;100.00;101754.41;5057713;28;20025;-84
2023/05/20 09:17:37;;;;;;;13.07;8.48;;;;;;;18.52;100.00;101672.56;5058385;28;20036;-84
2023/05/20 09:20:07;;;;;;;11.90;8.60;;;;;;;18.70;100.00;101664.19;5075856;28;20032;-84
2023/05/20 09:22:33;;;;;;;9.93;8.27;;;;;;;18.58;100.00;101633.69;5075637;28;20032;-82
2023/05/20 09:24:58;;;;;;;12.93;8.30;;;;;;;18.88;100.00;101622.31;5075937;28;20086;-86
2023/05/20 09:27:24;;;;;;;10.57;8.07;;;;;;;18.68;100.00;101534.56;5075804;28;20036;-84
2023/05/20 09:29:50;;;;;;;13.20;9.15;;;;;;;19.37;100.00;101626.53;5058032;28;20048;-80
2023/05/20 09:32:17;;;;;;;13.02;8.75;;;;;;;19.36;100.00;101568.13;5075439;28;20020;-79
2023/05/20 09:34:44;;;;;;;10.45;7.63;;;;;;;19.54;100.00;101590.63;5075056;28;20032;-81
2023/05/20 09:37:10;;;;;;;13.65;8.40;;;;;;;19.75;100.00;101545.03;5056997;28;20032;-82
2023/05/20 09:40:08;;;;;;;10.57;8.75;;;;;;;20.08;100.00;101545.41;5074983;28;20039;-81
2023/05/20 09:42:53;;;;;;;11.25;8.05;;;;;;;20.47;100.00;101508.41;5056132;28;20128;-81
2023/05/20 09:45:21;;;;;;;9.50;7.47;;;;;;;20.59;100.00;101489.75;5075692;28;20588;-82
2023/05/20 09:47:47;;;;;;;13.73;8.05;;;;;;;20.74;100.00;101449.44;5057087;28;20054;-82
2023/05/20 09:50:13;;;;;;;11.68;7.93;;;;;;;20.96;100.00;101398.38;5057469;28;20305;-80
2023/05/20 09:52:40;;;;;;;11.77;8.48;;;;;;;20.71;100.00;101289.31;5057320;28;20484;-81
2023/05/20 09:55:06;;;;;;;11.20;8.35;;;;;;;20.98;100.00;101287.09;5057356;28;20032;-84
2023/05/20 09:57:36;;;;;;;10.20;8.18;;;;;;;20.69;100.00;101245.44;5075840;28;20034;-83
2023/05/20 10:00:07;;;;;;;11.85;7.95;;;;;;;21.01;100.00;101253.31;5057500;28;20502;-83
2023/05/20 10:02:34;;;;;;;11.55;7.28;;;;;;;20.86;100.00;101205.78;5057644;28;20435;-85
2023/05/20 10:05:08;;;;;;;10.73;7.30;;;;;;;20.62;100.00;101157.91;5075551;28;20106;-82
2023/05/20 10:08:00;;;;;;;11.02;8.02;;;;;;;20.65;100.00;101179.28;5075353;28;20031;-83
2023/05/20 10:10:56;;;;;;;8.02;7.00;;;;;;;20.55;100.00;101166.88;5013153;28;20093;-84
2023/05/20 10:13:33;;;;;;;12.63;7.50;;;;;;;20.52;100.00;101143.81;5056685;28;20029;-85
2023/05/20 10:16:23;;;;;;;8.27;6.80;;;;;;;20.37;100.00;101095.44;5075212;28;20024;-83
2023/05/20 10:19:10;;;;;;;8.35;6.57;;;;;;;20.31;100.00;101060.44;5056896;28;20032;-81
2023/05/20 10:21:36;;;;;;;7.28;6.38;;;;;;;20.20;100.00;101052.41;5074987;28;20028;-81
2023/05/20 10:24:09;;;;;;;8.25;6.25;;;;;;;20.08;100.00;101031.47;5075127;28;20024;-81
2023/05/20 10:26:40;;;;;;;10.13;6.40;;;;;;;19.88;100.00;100998.91;5074760;28;20106;-80
2023/05/20 10:29:16;;;;;;;9.88;6.25;;;;;;;19.41;100.00;100925.59;5074633;28;20040;-80
2023/05/20 10:31:48;;;;;;;9.90;6.80;;;;;;;19.35;100.00;100925.91;5074485;28;20028;-80
2023/05/20 10:34:18;;;;;;;8.25;6.68;;;;;;;19.33;100.00;100941.44;5056568;28;20117;-80
2023/05/20 10:36:57;;;;;;;9.52;6.93;;;;;;;19.24;100.00;100938.44;5074682;28;20130;-82
2023/05/20 10:39:33;;;;;;;11.88;6.95;;;;;;;19.62;100.00;100983.88;5056727;28;20127;-83
2023/05/20 10:42:08;;;;;;;12.02;7.43;;;;;;;19.48;100.00;100996.59;5074428;28;20025;-80
2023/05/20 10:44:45;;;;;;;8.18;6.97;;;;;;;19.26;100.00;100965.81;5074433;28;20030;-85
2023/05/20 10:47:25;;;;;;;9.85;7.75;;;;;;;19.11;100.00;100983.75;5074304;28;20029;-84
2023/05/20 10:49:51;;;;;;;9.45;7.25;;;;;;;19.22;100.00;101017.59;5073690;28;20028;-85
2023/05/20 10:52:16;;;;;;;11.63;7.40;;;;;;;19.23;100.00;101039.94;5073941;28;20029;-83
2023/05/20 10:54:56;;;;;;;10.88;7.68;;;;;;;19.57;100.00;101081.34;5055751;28;20036;-83
2023/05/20 10:57:22;;;;;;;11.18;7.50;;;;;;;19.32;100.00;101053.22;5073987;28;20487;-85
2023/05/20 10:59:48;;;;;;;11.43;7.15;;;;;;;19.42;100.00;101039.03;5073204;28;20036;-82
2023/05/20 11:02:15;;;;;;;7.95;6.85;;;;;;;19.70;100.00;101079.81;5073389;28;20035;-82
2023/05/20 11:04:45;;;;;;;12.63;8.40;;;;;;;19.42;100.00;101033.88;5072960;28;20045;-81
2023/05/20 11:07:11;;;;;;;9.90;7.63;;;;;;;19.74;100.00;101028.00;5055697;28;20093;-82
2023/05/20 11:09:37;;;;;;;8.20;6.90;;;;;;;19.42;100.00;100971.09;5073454;28;20029;-81